sensor_id;sensor_type;location;lat;lon;timestamp;P1;durP1;ratioP1;P2;durP2;ratioP2
12059;SDS011;6091;51.432;6.880;2023-05-07T00:02:26;0.73;;;0.60;;
12059;SDS011;6091;51.432;6.880;2023-05-07T00:04:53;0.70;;;0.70;;
12059;SDS011;6091;51.432;6.880;2023-05-07T00:07:20;0.70;;;0.70;;
12059;SDS011;6091;51.432;6.880;2023-05-07T00:09:48;0.70;;;0.70;;
12059;SDS011;6091;51.432;6.880;2023-05-07T00:12:16;0.98;;;0.70;;
12059;SDS011;6091;51.432;6.880;2023-05-07T00:14:43;0.77;;;0.77;;
12059;SDS011;6091;51.432;6.880;2023-05-07T00:17:12;0.75;;;0.75;;
12059;SDS011;6091;51.432;6.880;2023-05-07T00:19:41;0.70;;;0.70;;
12059;SDS011;6091;51.432;6.880;2023-05-07T00:22:08;0.93;;;0.75;;
12059;SDS011;6091;51.432;6.880;2023-05-07T00:24:35;0.80;;;0.80;;
12059;SDS011;6091;51.432;6.880;2023-05-07T00:27:06;1.02;;;1.00;;
12059;SDS011;6091;51.432;6.880;2023-05-07T00:29:33;1.17;;;1.08;;
12059;SDS011;6091;51.432;6.880;2023-05-07T00:32:00;0.80;;;0.80;;
12059;SDS011;6091;51.432;6.880;2023-05-07T00:34:31;0.60;;;0.60;;
12059;SDS011;6091;51.432;6.880;2023-05-07T00:37:01;0.80;;;0.80;;
12059;SDS011;6091;51.432;6.880;2023-05-07T00:39:33;0.88;;;0.80;;
12059;SDS011;6091;51.432;6.880;2023-05-07T00:42:04;1.10;;;0.80;;
12059;SDS011;6091;51.432;6.880;2023-05-07T00:44:34;0.65;;;0.65;;
12059;SDS011;6091;51.432;6.880;2023-05-07T00:47:02;0.70;;;0.70;;
12059;SDS011;6091;51.432;6.880;2023-05-07T00:49:37;0.77;;;0.70;;
12059;SDS011;6091;51.432;6.880;2023-05-07T00:52:07;0.77;;;0.77;;
12059;SDS011;6091;51.432;6.880;2023-05-07T00:54:40;1.23;;;0.80;;
12059;SDS011;6091;51.432;6.880;2023-05-07T00:57:09;0.73;;;0.73;;
12059;SDS011;6091;51.432;6.880;2023-05-07T00:59:43;1.45;;;1.00;;
12059;SDS011;6091;51.432;6.880;2023-05-07T01:02:11;0.90;;;0.90;;
12059;SDS011;6091;51.432;6.880;2023-05-07T01:04:38;0.90;;;0.90;;
12059;SDS011;6091;51.432;6.880;2023-05-07T01:07:07;0.80;;;0.80;;
12059;SDS011;6091;51.432;6.880;2023-05-07T01:09:37;0.65;;;0.65;;
12059;SDS011;6091;51.432;6.880;2023-05-07T01:12:06;0.80;;;0.80;;
12059;SDS011;6091;51.432;6.880;2023-05-07T01:14:35;0.70;;;0.70;;
12059;SDS011;6091;51.432;6.880;2023-05-07T01:17:02;1.00;;;0.90;;
12059;SDS011;6091;51.432;6.880;2023-05-07T01:19:30;0.68;;;0.68;;
12059;SDS011;6091;51.432;6.880;2023-05-07T01:22:01;0.80;;;0.80;;
12059;SDS011;6091;51.432;6.880;2023-05-07T01:24:37;0.82;;;0.82;;
12059;SDS011;6091;51.432;6.880;2023-05-07T01:27:04;0.73;;;0.73;;
12059;SDS011;6091;51.432;6.880;2023-05-07T01:29:32;0.90;;;0.90;;
12059;SDS011;6091;51.432;6.880;2023-05-07T01:31:59;0.80;;;0.80;;
12059;SDS011;6091;51.432;6.880;2023-05-07T01:34:28;0.80;;;0.80;;
12059;SDS011;6091;51.432;6.880;2023-05-07T01:37:01;0.63;;;0.63;;
12059;SDS011;6091;51.432;6.880;2023-05-07T01:39:29;0.88;;;0.85;;
12059;SDS011;6091;51.432;6.880;2023-05-07T01:41:58;0.75;;;0.75;;
12059;SDS011;6091;51.432;6.880;2023-05-07T01:44:26;0.82;;;0.80;;
12059;SDS011;6091;51.432;6.880;2023-05-07T01:46:56;0.70;;;0.70;;
12059;SDS011;6091;51.432;6.880;2023-05-07T01:49:30;0.80;;;0.80;;
12059;SDS011;6091;51.432;6.880;2023-05-07T01:51:58;1.08;;;0.80;;
12059;SDS011;6091;51.432;6.880;2023-05-07T01:54:28;0.85;;;0.85;;
12059;SDS011;6091;51.432;6.880;2023-05-07T01:56:57;0.80;;;0.77;;
12059;SDS011;6091;51.432;6.880;2023-05-07T01:59:24;0.77;;;0.77;;
12059;SDS011;6091;51.432;6.880;2023-05-07T02:01:51;0.85;;;0.85;;
12059;SDS011;6091;51.432;6.880;2023-05-07T02:04:22;1.00;;;1.00;;
12059;SDS011;6091;51.432;6.880;2023-05-07T02:06:54;0.85;;;0.85;;
12059;SDS011;6091;51.432;6.880;2023-05-07T02:09:30;1.20;;;1.10;;
12059;SDS011;6091;51.432;6.880;2023-05-07T02:11:58;0.75;;;0.75;;
12059;SDS011;6091;51.432;6.880;2023-05-07T02:14:26;0.90;;;0.90;;
12059;SDS011;6091;51.432;6.880;2023-05-07T02:16:55;0.75;;;0.75;;
12059;SDS011;6091;51.432;6.880;2023-05-07T02:19:23;0.80;;;0.80;;
12059;SDS011;6091;51.432;6.880;2023-05-07T02:21:50;0.90;;;0.90;;
12059;SDS011;6091;51.432;6.880;2023-05-07T02:24:17;1.02;;;0.90;;
12059;SDS011;6091;51.432;6.880;2023-05-07T02:26:45;1.40;;;1.00;;
12059;SDS011;6091;51.432;6.880;2023-05-07T02:29:12;0.90;;;0.90;;
12059;SDS011;6091;51.432;6.880;2023-05-07T02:31:39;0.80;;;0.80;;
12059;SDS011;6091;51.432;6.880;2023-05-07T02:34:06;0.70;;;0.70;;
12059;SDS011;6091;51.432;6.880;2023-05-07T02:36:37;0.70;;;0.70;;
12059;SDS011;6091;51.432;6.880;2023-05-07T02:39:04;1.00;;;0.90;;
12059;SDS011;6091;51.432;6.880;2023-05-07T02:41:32;1.52;;;1.00;;
12059;SDS011;6091;51.432;6.880;2023-05-07T02:44:00;1.00;;;1.00;;
12059;SDS011;6091;51.432;6.880;2023-05-07T02:46:27;0.93;;;0.93;;
12059;SDS011;6091;51.432;6.880;2023-05-07T02:48:57;0.90;;;0.90;;
12059;SDS011;6091;51.432;6.880;2023-05-07T02:51:25;0.95;;;0.95;;
12059;SDS011;6091;51.432;6.880;2023-05-07T02:53:56;0.80;;;0.80;;
12059;SDS011;6091;51.432;6.880;2023-05-07T02:56:26;0.90;;;0.90;;
12059;SDS011;6091;51.432;6.880;2023-05-07T02:58:54;0.90;;;0.90;;
12059;SDS011;6091;51.432;6.880;2023-05-07T03:01:24;0.80;;;0.80;;
12059;SDS011;6091;51.432;6.880;2023-05-07T03:03:53;0.90;;;0.90;;
12059;SDS011;6091;51.432;6.880;2023-05-07T03:06:20;1.00;;;1.00;;
12059;SDS011;6091;51.432;6.880;2023-05-07T03:08:47;1.00;;;1.00;;
12059;SDS011;6091;51.432;6.880;2023-05-07T03:11:15;1.30;;;1.20;;
12059;SDS011;6091;51.432;6.880;2023-05-07T03:13:43;0.93;;;0.90;;
12059;SDS011;6091;51.432;6.880;2023-05-07T03:16:11;1.00;;;0.85;;
12059;SDS011;6091;51.432;6.880;2023-05-07T03:18:39;1.10;;;1.00;;
12059;SDS011;6091;51.432;6.880;2023-05-07T03:21:07;0.77;;;0.77;;
12059;SDS011;6091;51.432;6.880;2023-05-07T03:23:34;0.85;;;0.85;;
12059;SDS011;6091;51.432;6.880;2023-05-07T03:26:01;0.90;;;0.90;;
12059;SDS011;6091;51.432;6.880;2023-05-07T03:28:29;0.75;;;0.75;;
12059;SDS011;6091;51.432;6.880;2023-05-07T03:30:57;1.10;;;1.00;;
12059;SDS011;6091;51.432;6.880;2023-05-07T03:33:27;0.70;;;0.70;;
12059;SDS011;6091;51.432;6.880;2023-05-07T03:35:55;0.95;;;0.95;;
12059;SDS011;6091;51.432;6.880;2023-05-07T03:38:22;0.95;;;0.95;;
12059;SDS011;6091;51.432;6.880;2023-05-07T03:40:50;0.90;;;0.90;;
12059;SDS011;6091;51.432;6.880;2023-05-07T03:43:17;0.85;;;0.85;;
12059;SDS011;6091;51.432;6.880;2023-05-07T03:45:47;1.00;;;1.00;;
12059;SDS011;6091;51.432;6.880;2023-05-07T03:48:14;0.80;;;0.80;;
12059;SDS011;6091;51.432;6.880;2023-05-07T03:50:42;0.93;;;0.80;;
12059;SDS011;6091;51.432;6.880;2023-05-07T03:53:09;0.80;;;0.80;;
12059;SDS011;6091;51.432;6.880;2023-05-07T03:55:36;0.80;;;0.80;;
12059;SDS011;6091;51.432;6.880;2023-05-07T03:58:08;1.17;;;1.08;;
12059;SDS011;6091;51.432;6.880;2023-05-07T04:00:38;0.93;;;0.88;;
12059;SDS011;6091;51.432;6.880;2023-05-07T04:03:07;0.82;;;0.82;;
12059;SDS011;6091;51.432;6.880;2023-05-07T04:05:35;0.98;;;0.98;;
12059;SDS011;6091;51.432;6.880;2023-05-07T04:08:02;0.88;;;0.88;;
12059;SDS011;6091;51.432;6.880;2023-05-07T04:10:30;0.82;;;0.82;;
12059;SDS011;6091;51.432;6.880;2023-05-07T04:12:58;1.00;;;0.90;;
12059;SDS011;6091;51.432;6.880;2023-05-07T04:15:25;0.85;;;0.85;;
12059;SDS011;6091;51.432;6.880;2023-05-07T04:17:52;1.20;;;1.10;;
12059;SDS011;6091;51.432;6.880;2023-05-07T04:20:19;1.00;;;0.90;;
12059;SDS011;6091;51.432;6.880;2023-05-07T04:22:47;1.20;;;1.10;;
12059;SDS011;6091;51.432;6.880;2023-05-07T04:25:17;0.93;;;0.90;;
12059;SDS011;6091;51.432;6.880;2023-05-07T04:27:45;0.80;;;0.80;;
12059;SDS011;6091;51.432;6.880;2023-05-07T04:30:12;1.10;;;1.00;;
12059;SDS011;6091;51.432;6.880;2023-05-07T04:32:40;0.90;;;0.90;;
12059;SDS011;6091;51.432;6.880;2023-05-07T04:35:08;1.20;;;1.10;;
12059;SDS011;6091;51.432;6.880;2023-05-07T04:37:35;0.90;;;0.90;;
12059;SDS011;6091;51.432;6.880;2023-05-07T04:40:03;0.70;;;0.70;;
12059;SDS011;6091;51.432;6.880;2023-05-07T04:42:31;0.73;;;0.73;;
12059;SDS011;6091;51.432;6.880;2023-05-07T04:44:59;0.82;;;0.82;;
12059;SDS011;6091;51.432;6.880;2023-05-07T04:47:27;0.77;;;0.77;;
12059;SDS011;6091;51.432;6.880;2023-05-07T04:49:58;0.90;;;0.90;;
12059;SDS011;6091;51.432;6.880;2023-05-07T04:52:25;0.82;;;0.82;;
12059;SDS011;6091;51.432;6.880;2023-05-07T04:54:53;1.10;;;1.00;;
12059;SDS011;6091;51.432;6.880;2023-05-07T04:57:20;0.80;;;0.80;;
12059;SDS011;6091;51.432;6.880;2023-05-07T04:59:47;1.00;;;1.00;;
12059;SDS011;6091;51.432;6.880;2023-05-07T05:02:15;0.95;;;0.95;;
12059;SDS011;6091;51.432;6.880;2023-05-07T05:04:46;0.93;;;0.93;;
12059;SDS011;6091;51.432;6.880;2023-05-07T05:07:13;0.95;;;0.90;;
12059;SDS011;6091;51.432;6.880;2023-05-07T05:09:41;0.95;;;0.85;;
12059;SDS011;6091;51.432;6.880;2023-05-07T05:12:08;1.02;;;1.02;;
12059;SDS011;6091;51.432;6.880;2023-05-07T05:14:38;1.15;;;1.05;;
12059;SDS011;6091;51.432;6.880;2023-05-07T05:17:05;1.17;;;1.08;;
12059;SDS011;6091;51.432;6.880;2023-05-07T05:19:33;0.98;;;0.98;;
12059;SDS011;6091;51.432;6.880;2023-05-07T05:22:00;0.95;;;0.95;;
12059;SDS011;6091;51.432;6.880;2023-05-07T05:24:30;0.90;;;0.90;;
12059;SDS011;6091;51.432;6.880;2023-05-07T05:26:58;1.30;;;1.20;;
12059;SDS011;6091;51.432;6.880;2023-05-07T05:29:31;0.90;;;0.90;;
12059;SDS011;6091;51.432;6.880;2023-05-07T05:31:58;1.45;;;1.35;;
12059;SDS011;6091;51.432;6.880;2023-05-07T05:34:28;0.90;;;0.90;;
12059;SDS011;6091;51.432;6.880;2023-05-07T05:36:55;1.20;;;1.10;;
12059;SDS011;6091;51.432;6.880;2023-05-07T05:39:23;0.93;;;0.90;;
12059;SDS011;6091;51.432;6.880;2023-05-07T05:41:50;1.00;;;1.00;;
12059;SDS011;6091;51.432;6.880;2023-05-07T05:44:17;0.88;;;0.88;;
12059;SDS011;6091;51.432;6.880;2023-05-07T05:46:44;0.93;;;0.93;;
12059;SDS011;6091;51.432;6.880;2023-05-07T05:49:12;1.20;;;1.10;;
12059;SDS011;6091;51.432;6.880;2023-05-07T05:51:40;1.40;;;1.30;;
12059;SDS011;6091;51.432;6.880;2023-05-07T05:54:08;1.10;;;1.00;;
12059;SDS011;6091;51.432;6.880;2023-05-07T05:56:36;0.85;;;0.85;;
12059;SDS011;6091;51.432;6.880;2023-05-07T05:59:05;0.95;;;0.93;;
12059;SDS011;6091;51.432;6.880;2023-05-07T06:01:33;0.90;;;0.90;;
12059;SDS011;6091;51.432;6.880;2023-05-07T06:04:00;0.90;;;0.90;;
12059;SDS011;6091;51.432;6.880;2023-05-07T06:06:27;1.05;;;1.00;;
12059;SDS011;6091;51.432;6.880;2023-05-07T06:08:55;1.00;;;1.00;;
12059;SDS011;6091;51.432;6.880;2023-05-07T06:11:24;1.08;;;0.90;;
12059;SDS011;6091;51.432;6.880;2023-05-07T06:13:53;1.10;;;1.05;;
12059;SDS011;6091;51.432;6.880;2023-05-07T06:16:21;1.10;;;1.08;;
12059;SDS011;6091;51.432;6.880;2023-05-07T06:18:48;1.13;;;1.10;;
12059;SDS011;6091;51.432;6.880;2023-05-07T06:21:16;1.23;;;1.08;;
12059;SDS011;6091;51.432;6.880;2023-05-07T06:23:44;0.98;;;0.93;;
12059;SDS011;6091;51.432;6.880;2023-05-07T06:26:11;0.90;;;0.90;;
12059;SDS011;6091;51.432;6.880;2023-05-07T06:28:38;0.93;;;0.90;;
12059;SDS011;6091;51.432;6.880;2023-05-07T06:31:16;0.70;;;0.70;;
12059;SDS011;6091;51.432;6.880;2023-05-07T06:33:48;1.08;;;0.90;;
12059;SDS011;6091;51.432;6.880;2023-05-07T06:36:17;0.80;;;0.80;;
12059;SDS011;6091;51.432;6.880;2023-05-07T06:38:44;1.20;;;1.00;;
12059;SDS011;6091;51.432;6.880;2023-05-07T06:41:13;1.15;;;1.05;;
12059;SDS011;6091;51.432;6.880;2023-05-07T06:43:40;1.00;;;1.00;;
12059;SDS011;6091;51.432;6.880;2023-05-07T06:46:07;1.00;;;0.95;;
12059;SDS011;6091;51.432;6.880;2023-05-07T06:48:38;1.02;;;0.93;;
12059;SDS011;6091;51.432;6.880;2023-05-07T06:51:06;0.98;;;0.90;;
12059;SDS011;6091;51.432;6.880;2023-05-07T06:53:33;0.93;;;0.93;;
12059;SDS011;6091;51.432;6.880;2023-05-07T06:56:01;1.02;;;0.93;;
12059;SDS011;6091;51.432;6.880;2023-05-07T06:58:29;0.88;;;0.88;;
12059;SDS011;6091;51.432;6.880;2023-05-07T07:00:56;1.00;;;1.00;;
12059;SDS011;6091;51.432;6.880;2023-05-07T07:03:26;1.00;;;1.00;;
12059;SDS011;6091;51.432;6.880;2023-05-07T07:05:54;0.90;;;0.90;;
12059;SDS011;6091;51.432;6.880;2023-05-07T07:08:21;0.95;;;0.95;;
12059;SDS011;6091;51.432;6.880;2023-05-07T07:10:49;0.95;;;0.95;;
12059;SDS011;6091;51.432;6.880;2023-05-07T07:13:16;1.10;;;1.10;;
12059;SDS011;6091;51.432;6.880;2023-05-07T07:15:47;1.00;;;1.00;;
12059;SDS011;6091;51.432;6.880;2023-05-07T07:18:15;1.45;;;1.10;;
12059;SDS011;6091;51.432;6.880;2023-05-07T07:20:43;1.10;;;1.00;;
12059;SDS011;6091;51.432;6.880;2023-05-07T07:23:11;0.70;;;0.70;;
12059;SDS011;6091;51.432;6.880;2023-05-07T07:25:38;0.90;;;0.90;;
12059;SDS011;6091;51.432;6.880;2023-05-07T07:28:06;1.10;;;1.00;;
12059;SDS011;6091;51.432;6.880;2023-05-07T07:30:33;1.00;;;1.00;;
12059;SDS011;6091;51.432;6.880;2023-05-07T07:33:03;0.90;;;0.90;;
12059;SDS011;6091;51.432;6.880;2023-05-07T07:35:32;0.90;;;0.90;;
12059;SDS011;6091;51.432;6.880;2023-05-07T07:38:03;0.95;;;0.90;;
12059;SDS011;6091;51.432;6.880;2023-05-07T07:40:30;0.98;;;0.98;;
12059;SDS011;6091;51.432;6.880;2023-05-07T07:42:58;0.90;;;0.90;;
12059;SDS011;6091;51.432;6.880;2023-05-07T07:45:27;0.90;;;0.90;;
12059;SDS011;6091;51.432;6.880;2023-05-07T07:47:55;1.13;;;1.10;;
12059;SDS011;6091;51.432;6.880;2023-05-07T07:50:23;1.05;;;1.02;;
12059;SDS011;6091;51.432;6.880;2023-05-07T07:53:09;0.85;;;0.85;;
12059;SDS011;6091;51.432;6.880;2023-05-07T07:55:40;0.88;;;0.88;;
12059;SDS011;6091;51.432;6.880;2023-05-07T07:58:11;1.00;;;1.00;;
12059;SDS011;6091;51.432;6.880;2023-05-07T08:00:38;0.90;;;0.90;;
12059;SDS011;6091;51.432;6.880;2023-05-07T08:03:05;0.88;;;0.88;;
12059;SDS011;6091;51.432;6.880;2023-05-07T08:05:36;1.10;;;1.00;;
12059;SDS011;6091;51.432;6.880;2023-05-07T08:08:04;0.80;;;0.80;;
12059;SDS011;6091;51.432;6.880;2023-05-07T08:10:32;1.00;;;0.90;;
12059;SDS011;6091;51.432;6.880;2023-05-07T08:13:01;1.63;;;1.10;;
12059;SDS011;6091;51.432;6.880;2023-05-07T08:15:31;1.00;;;0.90;;
12059;SDS011;6091;51.432;6.880;2023-05-07T08:17:58;1.00;;;1.00;;
12059;SDS011;6091;51.432;6.880;2023-05-07T08:20:26;0.80;;;0.80;;
12059;SDS011;6091;51.432;6.880;2023-05-07T08:22:56;1.10;;;0.90;;
12059;SDS011;6091;51.432;6.880;2023-05-07T08:25:23;0.90;;;0.90;;
12059;SDS011;6091;51.432;6.880;2023-05-07T08:27:50;0.85;;;0.85;;
12059;SDS011;6091;51.432;6.880;2023-05-07T08:30:20;0.93;;;0.93;;
12059;SDS011;6091;51.432;6.880;2023-05-07T08:32:48;0.70;;;0.70;;
12059;SDS011;6091;51.432;6.880;2023-05-07T08:35:16;0.77;;;0.77;;
12059;SDS011;6091;51.432;6.880;2023-05-07T08:37:43;1.00;;;1.00;;
12059;SDS011;6091;51.432;6.880;2023-05-07T08:40:10;1.23;;;1.13;;
12059;SDS011;6091;51.432;6.880;2023-05-07T08:42:40;1.10;;;1.10;;
12059;SDS011;6091;51.432;6.880;2023-05-07T08:45:09;0.90;;;0.90;;
12059;SDS011;6091;51.432;6.880;2023-05-07T08:47:40;1.38;;;1.00;;
12059;SDS011;6091;51.432;6.880;2023-05-07T08:50:16;1.20;;;1.10;;
12059;SDS011;6091;51.432;6.880;2023-05-07T08:52:47;0.90;;;0.90;;
12059;SDS011;6091;51.432;6.880;2023-05-07T08:55:15;1.00;;;1.00;;
12059;SDS011;6091;51.432;6.880;2023-05-07T08:57:43;0.80;;;0.80;;
12059;SDS011;6091;51.432;6.880;2023-05-07T09:00:11;1.20;;;1.10;;
12059;SDS011;6091;51.432;6.880;2023-05-07T09:02:39;0.90;;;0.90;;
12059;SDS011;6091;51.432;6.880;2023-05-07T09:05:07;0.70;;;0.70;;
12059;SDS011;6091;51.432;6.880;2023-05-07T09:07:35;0.95;;;0.95;;
12059;SDS011;6091;51.432;6.880;2023-05-07T09:10:03;1.33;;;1.10;;
12059;SDS011;6091;51.432;6.880;2023-05-07T09:12:31;0.90;;;0.90;;
12059;SDS011;6091;51.432;6.880;2023-05-07T09:14:59;0.90;;;0.90;;
12059;SDS011;6091;51.432;6.880;2023-05-07T09:17:29;0.77;;;0.77;;
12059;SDS011;6091;51.432;6.880;2023-05-07T09:20:05;0.90;;;0.90;;
12059;SDS011;6091;51.432;6.880;2023-05-07T09:22:36;0.90;;;0.90;;
12059;SDS011;6091;51.432;6.880;2023-05-07T09:25:07;0.90;;;0.90;;
12059;SDS011;6091;51.432;6.880;2023-05-07T09:27:38;6.93;;;1.23;;
12059;SDS011;6091;51.432;6.880;2023-05-07T09:30:05;5.22;;;1.30;;
12059;SDS011;6091;51.432;6.880;2023-05-07T09:32:37;4.55;;;1.58;;
12059;SDS011;6091;51.432;6.880;2023-05-07T09:35:05;4.70;;;1.60;;
12059;SDS011;6091;51.432;6.880;2023-05-07T09:37:41;3.33;;;1.52;;
12059;SDS011;6091;51.432;6.880;2023-05-07T09:40:08;5.15;;;1.75;;
12059;SDS011;6091;51.432;6.880;2023-05-07T09:43:08;4.78;;;1.85;;
12059;SDS011;6091;51.432;6.880;2023-05-07T09:45:40;5.78;;;2.17;;
12059;SDS011;6091;51.432;6.880;2023-05-07T09:48:09;5.57;;;1.70;;
12059;SDS011;6091;51.432;6.880;2023-05-07T09:50:48;4.20;;;1.55;;
12059;SDS011;6091;51.432;6.880;2023-05-07T09:53:20;5.03;;;1.45;;
12059;SDS011;6091;51.432;6.880;2023-05-07T09:55:49;3.85;;;1.77;;
12059;SDS011;6091;51.432;6.880;2023-05-07T09:58:20;4.25;;;1.55;;
12059;SDS011;6091;51.432;6.880;2023-05-07T10:00:50;2.45;;;1.50;;
12059;SDS011;6091;51.432;6.880;2023-05-07T10:03:22;5.47;;;1.83;;
12059;SDS011;6091;51.432;6.880;2023-05-07T10:05:55;2.70;;;1.60;;
12059;SDS011;6091;51.432;6.880;2023-05-07T10:08:25;3.28;;;1.70;;
12059;SDS011;6091;51.432;6.880;2023-05-07T10:10:53;3.50;;;1.70;;
12059;SDS011;6091;51.432;6.880;2023-05-07T10:13:20;2.65;;;1.58;;
12059;SDS011;6091;51.432;6.880;2023-05-07T10:15:48;3.28;;;1.52;;
12059;SDS011;6091;51.432;6.880;2023-05-07T10:18:18;2.90;;;1.50;;
12059;SDS011;6091;51.432;6.880;2023-05-07T10:20:49;2.97;;;1.88;;
12059;SDS011;6091;51.432;6.880;2023-05-07T10:23:21;2.53;;;1.50;;
12059;SDS011;6091;51.432;6.880;2023-05-07T10:25:51;2.03;;;1.25;;
12059;SDS011;6091;51.432;6.880;2023-05-07T10:28:26;2.65;;;1.40;;
12059;SDS011;6091;51.432;6.880;2023-05-07T10:31:01;1.90;;;1.45;;
12059;SDS011;6091;51.432;6.880;2023-05-07T10:33:56;2.33;;;1.52;;
12059;SDS011;6091;51.432;6.880;2023-05-07T10:36:27;5.85;;;1.77;;
12059;SDS011;6091;51.432;6.880;2023-05-07T10:38:57;2.50;;;1.50;;
12059;SDS011;6091;51.432;6.880;2023-05-07T10:41:25;1.88;;;1.50;;
12059;SDS011;6091;51.432;6.880;2023-05-07T10:43:53;2.97;;;1.55;;
12059;SDS011;6091;51.432;6.880;2023-05-07T10:46:24;2.58;;;1.40;;
12059;SDS011;6091;51.432;6.880;2023-05-07T10:51:34;1.75;;;1.30;;
12059;SDS011;6091;51.432;6.880;2023-05-07T10:56:40;1.95;;;1.40;;
12059;SDS011;6091;51.432;6.880;2023-05-07T10:59:29;2.05;;;1.25;;
12059;SDS011;6091;51.432;6.880;2023-05-07T11:02:00;1.67;;;1.30;;
12059;SDS011;6091;51.432;6.880;2023-05-07T11:04:38;2.33;;;1.60;;
12059;SDS011;6091;51.432;6.880;2023-05-07T11:15:05;1.77;;;1.10;;
12059;SDS011;6091;51.432;6.880;2023-05-07T11:17:52;1.75;;;1.17;;
12059;SDS011;6091;51.432;6.880;2023-05-07T11:20:44;1.42;;;1.30;;
12059;SDS011;6091;51.432;6.880;2023-05-07T11:26:02;1.60;;;1.20;;
12059;SDS011;6091;51.432;6.880;2023-05-07T11:28:42;5.07;;;1.40;;
12059;SDS011;6091;51.432;6.880;2023-05-07T11:31:10;1.20;;;1.10;;
12059;SDS011;6091;51.432;6.880;2023-05-07T11:33:38;1.33;;;1.13;;
12059;SDS011;6091;51.432;6.880;2023-05-07T11:36:07;1.98;;;1.45;;
12059;SDS011;6091;51.432;6.880;2023-05-07T11:38:35;1.25;;;1.13;;
12059;SDS011;6091;51.432;6.880;2023-05-07T11:41:05;4.05;;;1.17;;
12059;SDS011;6091;51.432;6.880;2023-05-07T11:43:33;1.48;;;1.27;;
12059;SDS011;6091;51.432;6.880;2023-05-07T11:46:09;1.20;;;1.10;;
12059;SDS011;6091;51.432;6.880;2023-05-07T11:48:38;1.27;;;1.20;;
12059;SDS011;6091;51.432;6.880;2023-05-07T11:51:07;1.38;;;1.27;;
12059;SDS011;6091;51.432;6.880;2023-05-07T11:53:40;1.92;;;1.13;;
12059;SDS011;6091;51.432;6.880;2023-05-07T11:56:13;2.40;;;1.20;;
12059;SDS011;6091;51.432;6.880;2023-05-07T11:58:45;1.55;;;1.27;;
12059;SDS011;6091;51.432;6.880;2023-05-07T12:01:14;1.17;;;1.08;;
12059;SDS011;6091;51.432;6.880;2023-05-07T12:03:43;1.77;;;1.13;;
12059;SDS011;6091;51.432;6.880;2023-05-07T12:06:13;1.33;;;1.23;;
12059;SDS011;6091;51.432;6.880;2023-05-07T12:08:43;1.70;;;1.20;;
12059;SDS011;6091;51.432;6.880;2023-05-07T12:11:15;1.38;;;1.27;;
12059;SDS011;6091;51.432;6.880;2023-05-07T12:13:50;1.73;;;1.27;;
12059;SDS011;6091;51.432;6.880;2023-05-07T12:16:18;3.92;;;1.20;;
12059;SDS011;6091;51.432;6.880;2023-05-07T12:18:49;1.08;;;1.05;;
12059;SDS011;6091;51.432;6.880;2023-05-07T12:21:19;1.75;;;1.15;;
12059;SDS011;6091;51.432;6.880;2023-05-07T12:23:47;1.73;;;1.08;;
12059;SDS011;6091;51.432;6.880;2023-05-07T12:26:19;1.67;;;1.15;;
12059;SDS011;6091;51.432;6.880;2023-05-07T12:28:47;1.95;;;1.08;;
12059;SDS011;6091;51.432;6.880;2023-05-07T12:31:15;1.83;;;1.20;;
12059;SDS011;6091;51.432;6.880;2023-05-07T12:33:43;1.30;;;1.20;;
12059;SDS011;6091;51.432;6.880;2023-05-07T12:36:12;1.55;;;1.30;;
12059;SDS011;6091;51.432;6.880;2023-05-07T12:38:40;1.23;;;1.00;;
12059;SDS011;6091;51.432;6.880;2023-05-07T12:41:08;1.52;;;1.20;;
12059;SDS011;6091;51.432;6.880;2023-05-07T12:43:38;1.30;;;1.10;;
12059;SDS011;6091;51.432;6.880;2023-05-07T12:46:06;1.17;;;0.98;;
12059;SDS011;6091;51.432;6.880;2023-05-07T12:48:37;1.23;;;1.08;;
12059;SDS011;6091;51.432;6.880;2023-05-07T12:51:09;1.27;;;1.10;;
12059;SDS011;6091;51.432;6.880;2023-05-07T12:53:40;1.65;;;0.90;;
12059;SDS011;6091;51.432;6.880;2023-05-07T12:56:11;1.13;;;1.00;;
12059;SDS011;6091;51.432;6.880;2023-05-07T12:58:38;1.65;;;1.30;;
12059;SDS011;6091;51.432;6.880;2023-05-07T13:01:07;1.33;;;0.90;;
12059;SDS011;6091;51.432;6.880;2023-05-07T13:03:39;1.45;;;1.13;;
12059;SDS011;6091;51.432;6.880;2023-05-07T13:06:08;1.20;;;1.10;;
12059;SDS011;6091;51.432;6.880;2023-05-07T13:08:40;1.77;;;1.20;;
12059;SDS011;6091;51.432;6.880;2023-05-07T13:11:12;1.27;;;1.08;;
12059;SDS011;6091;51.432;6.880;2023-05-07T13:13:40;1.00;;;0.90;;
12059;SDS011;6091;51.432;6.880;2023-05-07T13:16:09;0.85;;;0.85;;
12059;SDS011;6091;51.432;6.880;2023-05-07T13:18:39;1.00;;;0.90;;
12059;SDS011;6091;51.432;6.880;2023-05-07T13:21:10;1.48;;;1.20;;
12059;SDS011;6091;51.432;6.880;2023-05-07T13:23:40;2.45;;;1.02;;
12059;SDS011;6091;51.432;6.880;2023-05-07T13:26:08;2.15;;;1.30;;
12059;SDS011;6091;51.432;6.880;2023-05-07T13:28:52;1.00;;;0.93;;
12059;SDS011;6091;51.432;6.880;2023-05-07T13:31:22;1.05;;;1.00;;
12059;SDS011;6091;51.432;6.880;2023-05-07T13:33:53;1.15;;;1.05;;
12059;SDS011;6091;51.432;6.880;2023-05-07T13:36:24;2.15;;;1.08;;
12059;SDS011;6091;51.432;6.880;2023-05-07T13:38:53;1.10;;;1.00;;
12059;SDS011;6091;51.432;6.880;2023-05-07T13:41:20;1.20;;;1.10;;
12059;SDS011;6091;51.432;6.880;2023-05-07T13:43:48;1.55;;;1.15;;
12059;SDS011;6091;51.432;6.880;2023-05-07T13:46:16;1.60;;;0.85;;
12059;SDS011;6091;51.432;6.880;2023-05-07T13:48:45;1.10;;;1.00;;
12059;SDS011;6091;51.432;6.880;2023-05-07T13:51:13;1.33;;;1.23;;
12059;SDS011;6091;51.432;6.880;2023-05-07T13:53:41;1.23;;;1.02;;
12059;SDS011;6091;51.432;6.880;2023-05-07T13:56:08;1.33;;;0.93;;
12059;SDS011;6091;51.432;6.880;2023-05-07T13:58:36;2.47;;;1.20;;
12059;SDS011;6091;51.432;6.880;2023-05-07T14:01:13;0.90;;;0.90;;
12059;SDS011;6091;51.432;6.880;2023-05-07T14:03:41;0.88;;;0.88;;
12059;SDS011;6091;51.432;6.880;2023-05-07T14:06:09;1.10;;;1.00;;
12059;SDS011;6091;51.432;6.880;2023-05-07T14:08:39;1.30;;;1.20;;
12059;SDS011;6091;51.432;6.880;2023-05-07T14:11:07;1.52;;;1.05;;
12059;SDS011;6091;51.432;6.880;2023-05-07T14:13:34;1.13;;;1.02;;
12059;SDS011;6091;51.432;6.880;2023-05-07T14:16:03;1.10;;;1.10;;
12059;SDS011;6091;51.432;6.880;2023-05-07T14:18:34;1.23;;;1.10;;
12059;SDS011;6091;51.432;6.880;2023-05-07T14:21:04;1.73;;;0.88;;
12059;SDS011;6091;51.432;6.880;2023-05-07T14:23:36;1.23;;;1.13;;
12059;SDS011;6091;51.432;6.880;2023-05-07T14:26:04;1.20;;;1.10;;
12059;SDS011;6091;51.432;6.880;2023-05-07T14:28:32;1.10;;;1.00;;
12059;SDS011;6091;51.432;6.880;2023-05-07T14:31:00;1.23;;;1.13;;
12059;SDS011;6091;51.432;6.880;2023-05-07T14:33:27;2.15;;;1.20;;
12059;SDS011;6091;51.432;6.880;2023-05-07T14:35:55;1.17;;;0.98;;
12059;SDS011;6091;51.432;6.880;2023-05-07T14:38:22;1.10;;;1.10;;
12059;SDS011;6091;51.432;6.880;2023-05-07T14:40:50;1.30;;;1.20;;
12059;SDS011;6091;51.432;6.880;2023-05-07T14:43:18;1.17;;;1.08;;
12059;SDS011;6091;51.432;6.880;2023-05-07T14:45:47;1.25;;;1.15;;
12059;SDS011;6091;51.432;6.880;2023-05-07T14:48:14;1.23;;;1.02;;
12059;SDS011;6091;51.432;6.880;2023-05-07T14:50:47;1.00;;;0.93;;
12059;SDS011;6091;51.432;6.880;2023-05-07T14:53:15;1.35;;;1.20;;
12059;SDS011;6091;51.432;6.880;2023-05-07T14:55:44;1.10;;;1.00;;
12059;SDS011;6091;51.432;6.880;2023-05-07T14:58:14;1.52;;;1.23;;
12059;SDS011;6091;51.432;6.880;2023-05-07T15:00:42;1.20;;;1.15;;
12059;SDS011;6091;51.432;6.880;2023-05-07T15:03:09;0.95;;;0.90;;
12059;SDS011;6091;51.432;6.880;2023-05-07T15:05:37;1.40;;;1.30;;
12059;SDS011;6091;51.432;6.880;2023-05-07T15:08:06;1.35;;;1.25;;
12059;SDS011;6091;51.432;6.880;2023-05-07T15:10:37;1.00;;;1.00;;
12059;SDS011;6091;51.432;6.880;2023-05-07T15:13:08;1.40;;;1.30;;
12059;SDS011;6091;51.432;6.880;2023-05-07T15:15:41;1.30;;;1.20;;
12059;SDS011;6091;51.432;6.880;2023-05-07T15:18:12;1.25;;;1.15;;
12059;SDS011;6091;51.432;6.880;2023-05-07T15:20:41;1.40;;;1.30;;
12059;SDS011;6091;51.432;6.880;2023-05-07T15:23:09;1.50;;;1.40;;
12059;SDS011;6091;51.432;6.880;2023-05-07T15:25:38;1.23;;;1.10;;
12059;SDS011;6091;51.432;6.880;2023-05-07T15:28:06;1.20;;;1.10;;
12059;SDS011;6091;51.432;6.880;2023-05-07T15:30:37;1.08;;;1.00;;